sensor_id;sensor_type;location;lat;lon;timestamp;P1;durP1;ratioP1;P2;durP2;ratioP2
3549;SDS011;45572;48.804;8.330;2022-08-19T00:02:18;18.83;;;11.23;;
3549;SDS011;45572;48.804;8.330;2022-08-19T00:04:46;14.43;;;11.30;;
3549;SDS011;45572;48.804;8.330;2022-08-19T00:07:18;13.73;;;10.30;;
3549;SDS011;45572;48.804;8.330;2022-08-19T00:09:46;16.30;;;10.00;;
3549;SDS011;45572;48.804;8.330;2022-08-19T00:12:14;14.90;;;10.90;;
3549;SDS011;45572;48.804;8.330;2022-08-19T00:14:42;14.20;;;10.70;;
3549;SDS011;45572;48.804;8.330;2022-08-19T00:17:09;15.50;;;10.90;;
3549;SDS011;45572;48.804;8.330;2022-08-19T00:19:39;15.40;;;11.80;;
3549;SDS011;45572;48.804;8.330;2022-08-19T00:22:06;15.90;;;11.00;;
3549;SDS011;45572;48.804;8.330;2022-08-19T00:24:34;13.93;;;11.43;;
3549;SDS011;45572;48.804;8.330;2022-08-19T00:27:04;16.10;;;11.27;;
3549;SDS011;45572;48.804;8.330;2022-08-19T00:29:51;14.17;;;11.27;;
3549;SDS011;45572;48.804;8.330;2022-08-19T00:32:20;15.70;;;11.33;;
3549;SDS011;45572;48.804;8.330;2022-08-19T00:34:50;13.73;;;10.10;;
3549;SDS011;45572;48.804;8.330;2022-08-19T00:37:19;17.40;;;12.23;;
3549;SDS011;45572;48.804;8.330;2022-08-19T00:39:49;13.73;;;10.57;;
3549;SDS011;45572;48.804;8.330;2022-08-19T00:42:17;16.03;;;11.97;;
3549;SDS011;45572;48.804;8.330;2022-08-19T00:44:46;16.20;;;9.77;;
3549;SDS011;45572;48.804;8.330;2022-08-19T00:47:14;15.37;;;10.90;;
3549;SDS011;45572;48.804;8.330;2022-08-19T00:49:43;16.37;;;11.67;;
3549;SDS011;45572;48.804;8.330;2022-08-19T00:52:18;14.20;;;10.97;;
3549;SDS011;45572;48.804;8.330;2022-08-19T00:54:49;16.70;;;11.03;;
3549;SDS011;45572;48.804;8.330;2022-08-19T00:57:20;16.50;;;10.90;;
3549;SDS011;45572;48.804;8.330;2022-08-19T00:59:54;16.97;;;12.70;;
3549;SDS011;45572;48.804;8.330;2022-08-19T01:02:28;17.17;;;11.23;;
3549;SDS011;45572;48.804;8.330;2022-08-19T01:04:57;17.20;;;11.40;;
3549;SDS011;45572;48.804;8.330;2022-08-19T01:07:27;14.47;;;10.07;;
3549;SDS011;45572;48.804;8.330;2022-08-19T01:10:03;14.40;;;10.43;;
3549;SDS011;45572;48.804;8.330;2022-08-19T01:12:34;16.53;;;11.30;;
3549;SDS011;45572;48.804;8.330;2022-08-19T01:15:02;18.10;;;12.13;;
3549;SDS011;45572;48.804;8.330;2022-08-19T01:17:30;18.33;;;12.07;;
3549;SDS011;45572;48.804;8.330;2022-08-19T01:19:58;16.53;;;11.50;;
3549;SDS011;45572;48.804;8.330;2022-08-19T01:22:28;16.83;;;11.13;;
3549;SDS011;45572;48.804;8.330;2022-08-19T01:24:59;16.43;;;11.30;;
3549;SDS011;45572;48.804;8.330;2022-08-19T01:27:38;17.77;;;11.20;;
3549;SDS011;45572;48.804;8.330;2022-08-19T01:30:09;18.50;;;11.63;;
3549;SDS011;45572;48.804;8.330;2022-08-19T01:32:38;18.03;;;11.97;;
3549;SDS011;45572;48.804;8.330;2022-08-19T01:35:06;16.10;;;11.07;;
3549;SDS011;45572;48.804;8.330;2022-08-19T01:37:43;17.80;;;11.60;;
3549;SDS011;45572;48.804;8.330;2022-08-19T01:40:12;19.73;;;13.53;;
3549;SDS011;45572;48.804;8.330;2022-08-19T01:42:40;18.13;;;12.73;;
3549;SDS011;45572;48.804;8.330;2022-08-19T01:45:08;20.90;;;12.87;;
3549;SDS011;45572;48.804;8.330;2022-08-19T01:47:36;20.20;;;12.83;;
3549;SDS011;45572;48.804;8.330;2022-08-19T01:50:06;18.90;;;12.77;;
3549;SDS011;45572;48.804;8.330;2022-08-19T01:52:35;18.87;;;12.67;;
3549;SDS011;45572;48.804;8.330;2022-08-19T01:55:06;18.80;;;13.23;;
3549;SDS011;45572;48.804;8.330;2022-08-19T01:57:36;17.70;;;11.63;;
3549;SDS011;45572;48.804;8.330;2022-08-19T02:00:07;19.70;;;13.70;;
3549;SDS011;45572;48.804;8.330;2022-08-19T02:02:40;20.30;;;12.90;;
3549;SDS011;45572;48.804;8.330;2022-08-19T02:05:09;19.27;;;12.93;;
3549;SDS011;45572;48.804;8.330;2022-08-19T02:07:38;17.77;;;11.60;;
3549;SDS011;45572;48.804;8.330;2022-08-19T02:10:10;17.63;;;11.60;;
3549;SDS011;45572;48.804;8.330;2022-08-19T02:12:42;18.90;;;12.03;;
3549;SDS011;45572;48.804;8.330;2022-08-19T02:15:10;17.30;;;11.73;;
3549;SDS011;45572;48.804;8.330;2022-08-19T02:17:38;19.63;;;11.70;;
3549;SDS011;45572;48.804;8.330;2022-08-19T02:20:07;23.10;;;12.87;;
3549;SDS011;45572;48.804;8.330;2022-08-19T02:22:36;18.20;;;12.97;;
3549;SDS011;45572;48.804;8.330;2022-08-19T02:25:04;17.83;;;11.80;;
3549;SDS011;45572;48.804;8.330;2022-08-19T02:27:33;21.00;;;12.63;;
3549;SDS011;45572;48.804;8.330;2022-08-19T02:30:01;16.90;;;12.53;;
3549;SDS011;45572;48.804;8.330;2022-08-19T02:32:31;21.93;;;12.00;;
3549;SDS011;45572;48.804;8.330;2022-08-19T02:35:09;20.60;;;12.57;;
3549;SDS011;45572;48.804;8.330;2022-08-19T02:37:38;21.87;;;12.50;;
3549;SDS011;45572;48.804;8.330;2022-08-19T02:40:19;19.40;;;12.70;;
3549;SDS011;45572;48.804;8.330;2022-08-19T02:42:48;20.20;;;12.97;;
3549;SDS011;45572;48.804;8.330;2022-08-19T02:45:17;22.10;;;13.13;;
3549;SDS011;45572;48.804;8.330;2022-08-19T02:47:44;23.93;;;13.93;;
3549;SDS011;45572;48.804;8.330;2022-08-19T02:50:12;22.77;;;13.17;;
3549;SDS011;45572;48.804;8.330;2022-08-19T02:52:40;21.17;;;12.60;;
3549;SDS011;45572;48.804;8.330;2022-08-19T02:55:08;17.20;;;11.67;;
3549;SDS011;45572;48.804;8.330;2022-08-19T02:57:36;18.60;;;12.50;;
3549;SDS011;45572;48.804;8.330;2022-08-19T03:00:06;19.57;;;12.10;;
3549;SDS011;45572;48.804;8.330;2022-08-19T03:02:38;19.53;;;12.90;;
3549;SDS011;45572;48.804;8.330;2022-08-19T03:05:06;20.17;;;12.90;;
3549;SDS011;45572;48.804;8.330;2022-08-19T03:07:36;16.67;;;12.63;;
3549;SDS011;45572;48.804;8.330;2022-08-19T03:10:05;19.80;;;12.53;;
3549;SDS011;45572;48.804;8.330;2022-08-19T03:12:35;20.60;;;12.97;;
3549;SDS011;45572;48.804;8.330;2022-08-19T03:15:04;21.80;;;13.97;;
3549;SDS011;45572;48.804;8.330;2022-08-19T03:17:34;20.27;;;13.43;;
3549;SDS011;45572;48.804;8.330;2022-08-19T03:20:03;17.37;;;11.60;;
3549;SDS011;45572;48.804;8.330;2022-08-19T03:22:32;20.40;;;12.80;;
3549;SDS011;45572;48.804;8.330;2022-08-19T03:24:59;14.40;;;10.83;;
3549;SDS011;45572;48.804;8.330;2022-08-19T03:27:27;17.60;;;12.80;;
3549;SDS011;45572;48.804;8.330;2022-08-19T03:30:00;19.30;;;12.57;;
3549;SDS011;45572;48.804;8.330;2022-08-19T03:32:29;17.67;;;12.27;;
3549;SDS011;45572;48.804;8.330;2022-08-19T03:34:58;15.50;;;11.40;;
3549;SDS011;45572;48.804;8.330;2022-08-19T03:37:26;19.77;;;13.20;;
3549;SDS011;45572;48.804;8.330;2022-08-19T03:39:54;20.67;;;13.37;;
3549;SDS011;45572;48.804;8.330;2022-08-19T03:42:22;19.00;;;13.67;;
3549;SDS011;45572;48.804;8.330;2022-08-19T03:45:11;18.50;;;12.67;;
3549;SDS011;45572;48.804;8.330;2022-08-19T03:47:40;18.10;;;12.27;;
3549;SDS011;45572;48.804;8.330;2022-08-19T03:50:08;22.40;;;13.33;;
3549;SDS011;45572;48.804;8.330;2022-08-19T03:52:37;16.00;;;11.77;;
3549;SDS011;45572;48.804;8.330;2022-08-19T03:55:10;20.40;;;12.70;;
3549;SDS011;45572;48.804;8.330;2022-08-19T03:57:38;18.83;;;12.00;;
3549;SDS011;45572;48.804;8.330;2022-08-19T04:00:06;23.63;;;12.33;;
3549;SDS011;45572;48.804;8.330;2022-08-19T04:02:40;20.17;;;12.83;;
3549;SDS011;45572;48.804;8.330;2022-08-19T04:05:24;17.70;;;11.70;;
3549;SDS011;45572;48.804;8.330;2022-08-19T04:07:54;19.70;;;12.97;;
3549;SDS011;45572;48.804;8.330;2022-08-19T04:10:25;17.70;;;12.47;;
3549;SDS011;45572;48.804;8.330;2022-08-19T04:12:53;20.10;;;11.93;;
3549;SDS011;45572;48.804;8.330;2022-08-19T04:15:21;17.33;;;11.70;;
3549;SDS011;45572;48.804;8.330;2022-08-19T04:17:50;18.57;;;12.40;;
3549;SDS011;45572;48.804;8.330;2022-08-19T04:20:18;17.30;;;12.43;;
3549;SDS011;45572;48.804;8.330;2022-08-19T04:22:46;20.67;;;13.90;;
3549;SDS011;45572;48.804;8.330;2022-08-19T04:25:13;19.17;;;12.10;;
3549;SDS011;45572;48.804;8.330;2022-08-19T04:27:41;16.47;;;12.57;;
3549;SDS011;45572;48.804;8.330;2022-08-19T04:30:12;20.33;;;12.10;;
3549;SDS011;45572;48.804;8.330;2022-08-19T04:32:40;19.30;;;12.50;;
3549;SDS011;45572;48.804;8.330;2022-08-19T04:35:11;18.60;;;12.97;;
3549;SDS011;45572;48.804;8.330;2022-08-19T04:37:43;20.13;;;13.70;;
3549;SDS011;45572;48.804;8.330;2022-08-19T04:40:11;21.20;;;12.93;;
3549;SDS011;45572;48.804;8.330;2022-08-19T04:42:53;19.73;;;13.23;;
3549;SDS011;45572;48.804;8.330;2022-08-19T04:45:21;17.20;;;11.20;;
3549;SDS011;45572;48.804;8.330;2022-08-19T04:47:49;21.67;;;13.70;;
3549;SDS011;45572;48.804;8.330;2022-08-19T04:50:44;17.40;;;12.23;;
3549;SDS011;45572;48.804;8.330;2022-08-19T04:53:12;19.40;;;12.80;;
3549;SDS011;45572;48.804;8.330;2022-08-19T04:55:41;19.63;;;12.93;;
3549;SDS011;45572;48.804;8.330;2022-08-19T04:58:09;16.00;;;12.47;;
3549;SDS011;45572;48.804;8.330;2022-08-19T05:00:37;18.17;;;11.40;;
3549;SDS011;45572;48.804;8.330;2022-08-19T05:03:05;18.73;;;13.20;;
3549;SDS011;45572;48.804;8.330;2022-08-19T05:05:37;20.93;;;12.80;;
3549;SDS011;45572;48.804;8.330;2022-08-19T05:08:12;18.37;;;13.80;;
3549;SDS011;45572;48.804;8.330;2022-08-19T05:10:57;23.00;;;14.57;;
3549;SDS011;45572;48.804;8.330;2022-08-19T05:13:25;16.17;;;11.30;;
3549;SDS011;45572;48.804;8.330;2022-08-19T05:15:53;19.37;;;13.47;;
3549;SDS011;45572;48.804;8.330;2022-08-19T05:18:23;22.37;;;14.20;;
3549;SDS011;45572;48.804;8.330;2022-08-19T05:21:05;18.90;;;12.60;;
3549;SDS011;45572;48.804;8.330;2022-08-19T05:23:49;22.77;;;13.70;;
3549;SDS011;45572;48.804;8.330;2022-08-19T05:26:17;16.97;;;11.70;;
3549;SDS011;45572;48.804;8.330;2022-08-19T05:28:44;19.53;;;13.03;;
3549;SDS011;45572;48.804;8.330;2022-08-19T05:31:12;20.80;;;13.47;;
3549;SDS011;45572;48.804;8.330;2022-08-19T05:33:40;18.37;;;11.90;;
3549;SDS011;45572;48.804;8.330;2022-08-19T05:36:08;19.70;;;12.67;;
3549;SDS011;45572;48.804;8.330;2022-08-19T05:38:36;17.80;;;12.03;;
3549;SDS011;45572;48.804;8.330;2022-08-19T05:41:08;18.17;;;12.87;;
3549;SDS011;45572;48.804;8.330;2022-08-19T05:43:36;18.40;;;14.03;;
3549;SDS011;45572;48.804;8.330;2022-08-19T05:46:04;15.20;;;12.00;;
3549;SDS011;45572;48.804;8.330;2022-08-19T05:48:33;17.83;;;12.30;;
3549;SDS011;45572;48.804;8.330;2022-08-19T05:51:04;14.00;;;11.07;;
3549;SDS011;45572;48.804;8.330;2022-08-19T05:53:34;16.10;;;11.97;;
3549;SDS011;45572;48.804;8.330;2022-08-19T05:56:03;17.07;;;13.23;;
3549;SDS011;45572;48.804;8.330;2022-08-19T05:58:33;17.20;;;12.33;;
3549;SDS011;45572;48.804;8.330;2022-08-19T06:01:01;16.87;;;12.03;;
3549;SDS011;45572;48.804;8.330;2022-08-19T06:03:31;15.70;;;11.57;;
3549;SDS011;45572;48.804;8.330;2022-08-19T06:06:00;19.30;;;14.03;;
3549;SDS011;45572;48.804;8.330;2022-08-19T06:08:28;15.47;;;11.90;;
3549;SDS011;45572;48.804;8.330;2022-08-19T06:13:46;20.73;;;11.93;;
3549;SDS011;45572;48.804;8.330;2022-08-19T06:16:25;19.13;;;12.07;;
3549;SDS011;45572;48.804;8.330;2022-08-19T06:18:54;19.73;;;12.20;;
3549;SDS011;45572;48.804;8.330;2022-08-19T06:21:24;16.13;;;11.67;;
3549;SDS011;45572;48.804;8.330;2022-08-19T06:23:54;15.40;;;12.10;;
3549;SDS011;45572;48.804;8.330;2022-08-19T06:26:22;16.83;;;13.07;;
3549;SDS011;45572;48.804;8.330;2022-08-19T06:28:52;16.07;;;11.90;;
3549;SDS011;45572;48.804;8.330;2022-08-19T06:31:21;17.63;;;13.10;;
3549;SDS011;45572;48.804;8.330;2022-08-19T06:33:52;17.10;;;12.30;;
3549;SDS011;45572;48.804;8.330;2022-08-19T06:36:20;18.53;;;12.27;;
3549;SDS011;45572;48.804;8.330;2022-08-19T06:38:53;15.93;;;11.93;;
3549;SDS011;45572;48.804;8.330;2022-08-19T06:41:23;17.90;;;13.03;;
3549;SDS011;45572;48.804;8.330;2022-08-19T06:43:52;19.80;;;13.90;;
3549;SDS011;45572;48.804;8.330;2022-08-19T06:46:21;18.00;;;13.00;;
3549;SDS011;45572;48.804;8.330;2022-08-19T06:48:50;19.60;;;13.70;;
3549;SDS011;45572;48.804;8.330;2022-08-19T06:51:20;20.77;;;15.07;;
3549;SDS011;45572;48.804;8.330;2022-08-19T06:53:50;21.50;;;14.70;;
3549;SDS011;45572;48.804;8.330;2022-08-19T06:56:22;22.10;;;15.43;;
3549;SDS011;45572;48.804;8.330;2022-08-19T06:58:58;22.03;;;15.07;;
3549;SDS011;45572;48.804;8.330;2022-08-19T07:01:26;25.53;;;14.57;;
3549;SDS011;45572;48.804;8.330;2022-08-19T07:03:53;23.70;;;14.33;;
3549;SDS011;45572;48.804;8.330;2022-08-19T07:06:23;23.70;;;16.27;;
3549;SDS011;45572;48.804;8.330;2022-08-19T07:09:09;23.03;;;15.73;;
3549;SDS011;45572;48.804;8.330;2022-08-19T07:11:41;23.07;;;15.53;;
3549;SDS011;45572;48.804;8.330;2022-08-19T07:14:12;22.93;;;15.40;;
3549;SDS011;45572;48.804;8.330;2022-08-19T07:16:45;22.80;;;14.77;;
3549;SDS011;45572;48.804;8.330;2022-08-19T07:19:14;20.30;;;13.43;;
3549;SDS011;45572;48.804;8.330;2022-08-19T07:21:46;24.53;;;15.63;;
3549;SDS011;45572;48.804;8.330;2022-08-19T07:24:16;21.00;;;14.13;;
3549;SDS011;45572;48.804;8.330;2022-08-19T07:26:44;23.43;;;15.00;;
3549;SDS011;45572;48.804;8.330;2022-08-19T07:29:18;21.27;;;16.00;;
3549;SDS011;45572;48.804;8.330;2022-08-19T07:31:51;19.37;;;13.20;;
3549;SDS011;45572;48.804;8.330;2022-08-19T07:34:23;19.00;;;14.53;;
3549;SDS011;45572;48.804;8.330;2022-08-19T07:36:51;20.13;;;12.20;;
3549;SDS011;45572;48.804;8.330;2022-08-19T07:39:21;19.23;;;12.87;;
3549;SDS011;45572;48.804;8.330;2022-08-19T07:41:50;17.77;;;12.77;;
3549;SDS011;45572;48.804;8.330;2022-08-19T07:44:19;22.40;;;14.57;;
3549;SDS011;45572;48.804;8.330;2022-08-19T07:46:52;21.37;;;12.57;;
3549;SDS011;45572;48.804;8.330;2022-08-19T07:49:21;18.07;;;12.80;;
3549;SDS011;45572;48.804;8.330;2022-08-19T07:51:51;18.03;;;12.97;;
3549;SDS011;45572;48.804;8.330;2022-08-19T07:54:21;17.57;;;12.20;;
3549;SDS011;45572;48.804;8.330;2022-08-19T07:56:50;18.10;;;13.63;;
3549;SDS011;45572;48.804;8.330;2022-08-19T07:59:20;17.93;;;13.77;;
3549;SDS011;45572;48.804;8.330;2022-08-19T08:01:48;21.37;;;13.10;;
3549;SDS011;45572;48.804;8.330;2022-08-19T08:04:17;17.30;;;13.17;;
3549;SDS011;45572;48.804;8.330;2022-08-19T08:06:59;20.00;;;13.77;;
3549;SDS011;45572;48.804;8.330;2022-08-19T08:09:42;18.67;;;13.00;;
3549;SDS011;45572;48.804;8.330;2022-08-19T08:12:16;18.73;;;12.63;;
3549;SDS011;45572;48.804;8.330;2022-08-19T08:15:04;19.60;;;12.97;;
3549;SDS011;45572;48.804;8.330;2022-08-19T08:17:38;16.77;;;11.47;;
3549;SDS011;45572;48.804;8.330;2022-08-19T08:20:17;19.60;;;12.77;;
3549;SDS011;45572;48.804;8.330;2022-08-19T08:22:46;16.63;;;12.67;;
3549;SDS011;45572;48.804;8.330;2022-08-19T08:25:29;16.23;;;12.27;;
3549;SDS011;45572;48.804;8.330;2022-08-19T08:27:59;17.20;;;12.47;;
3549;SDS011;45572;48.804;8.330;2022-08-19T08:30:29;18.40;;;12.70;;
3549;SDS011;45572;48.804;8.330;2022-08-19T08:32:59;19.20;;;12.33;;
3549;SDS011;45572;48.804;8.330;2022-08-19T08:35:28;17.30;;;13.63;;
3549;SDS011;45572;48.804;8.330;2022-08-19T08:37:55;16.00;;;13.13;;
3549;SDS011;45572;48.804;8.330;2022-08-19T08:40:26;18.70;;;11.97;;
3549;SDS011;45572;48.804;8.330;2022-08-19T08:42:57;16.63;;;11.50;;
3549;SDS011;45572;48.804;8.330;2022-08-19T08:45:38;16.87;;;11.40;;
3549;SDS011;45572;48.804;8.330;2022-08-19T08:48:20;18.07;;;10.40;;
3549;SDS011;45572;48.804;8.330;2022-08-19T08:50:54;13.07;;;10.87;;
3549;SDS011;45572;48.804;8.330;2022-08-19T08:53:23;12.37;;;10.83;;
3549;SDS011;45572;48.804;8.330;2022-08-19T08:56:00;14.33;;;10.00;;
3549;SDS011;45572;48.804;8.330;2022-08-19T08:58:33;11.63;;;9.53;;
3549;SDS011;45572;48.804;8.330;2022-08-19T09:01:10;14.20;;;10.83;;
3549;SDS011;45572;48.804;8.330;2022-08-19T09:03:40;11.10;;;9.87;;
3549;SDS011;45572;48.804;8.330;2022-08-19T09:06:13;16.13;;;9.63;;
3549;SDS011;45572;48.804;8.330;2022-08-19T09:08:52;13.10;;;10.10;;
3549;SDS011;45572;48.804;8.330;2022-08-19T09:11:42;14.83;;;11.43;;
3549;SDS011;45572;48.804;8.330;2022-08-19T09:14:23;15.13;;;10.97;;
3549;SDS011;45572;48.804;8.330;2022-08-19T09:17:20;13.50;;;10.87;;
3549;SDS011;45572;48.804;8.330;2022-08-19T09:19:57;15.30;;;10.50;;
3549;SDS011;45572;48.804;8.330;2022-08-19T09:22:31;14.60;;;11.43;;
3549;SDS011;45572;48.804;8.330;2022-08-19T09:24:59;14.50;;;9.80;;
3549;SDS011;45572;48.804;8.330;2022-08-19T09:27:27;11.23;;;10.00;;
3549;SDS011;45572;48.804;8.330;2022-08-19T09:30:10;14.27;;;10.27;;
3549;SDS011;45572;48.804;8.330;2022-08-19T09:32:43;11.47;;;9.60;;
3549;SDS011;45572;48.804;8.330;2022-08-19T09:35:12;8.80;;;7.90;;
3549;SDS011;45572;48.804;8.330;2022-08-19T09:37:41;11.80;;;8.33;;
3549;SDS011;45572;48.804;8.330;2022-08-19T09:40:10;16.10;;;10.70;;
3549;SDS011;45572;48.804;8.330;2022-08-19T09:42:41;10.33;;;8.00;;
3549;SDS011;45572;48.804;8.330;2022-08-19T09:45:18;12.60;;;8.27;;
3549;SDS011;45572;48.804;8.330;2022-08-19T09:47:50;9.37;;;8.30;;
3549;SDS011;45572;48.804;8.330;2022-08-19T09:50:21;9.27;;;7.60;;
3549;SDS011;45572;48.804;8.330;2022-08-19T09:52:50;12.17;;;7.43;;
3549;SDS011;45572;48.804;8.330;2022-08-19T09:55:23;9.90;;;7.70;;
3549;SDS011;45572;48.804;8.330;2022-08-19T09:57:59;7.50;;;5.90;;
3549;SDS011;45572;48.804;8.330;2022-08-19T10:00:27;8.43;;;6.90;;
3549;SDS011;45572;48.804;8.330;2022-08-19T10:02:57;10.63;;;7.17;;
3549;SDS011;45572;48.804;8.330;2022-08-19T10:05:26;13.77;;;6.90;;
3549;SDS011;45572;48.804;8.330;2022-08-19T10:08:08;10.60;;;6.93;;
3549;SDS011;45572;48.804;8.330;2022-08-19T10:10:38;10.10;;;7.93;;
3549;SDS011;45572;48.804;8.330;2022-08-19T10:13:11;9.23;;;6.93;;
3549;SDS011;45572;48.804;8.330;2022-08-19T10:15:40;8.20;;;6.80;;
3549;SDS011;45572;48.804;8.330;2022-08-19T10:18:14;12.00;;;7.93;;
3549;SDS011;45572;48.804;8.330;2022-08-19T10:20:44;8.90;;;7.73;;
3549;SDS011;45572;48.804;8.330;2022-08-19T10:23:17;15.00;;;8.00;;
3549;SDS011;45572;48.804;8.330;2022-08-19T10:25:46;8.60;;;7.10;;
3549;SDS011;45572;48.804;8.330;2022-08-19T10:28:15;10.37;;;8.97;;
3549;SDS011;45572;48.804;8.330;2022-08-19T10:30:45;12.33;;;8.50;;
3549;SDS011;45572;48.804;8.330;2022-08-19T10:33:14;15.00;;;9.30;;
3549;SDS011;45572;48.804;8.330;2022-08-19T10:36:03;9.30;;;8.30;;
3549;SDS011;45572;48.804;8.330;2022-08-19T10:38:33;11.00;;;7.03;;
3549;SDS011;45572;48.804;8.330;2022-08-19T10:41:06;8.77;;;7.37;;
3549;SDS011;45572;48.804;8.330;2022-08-19T10:43:35;10.47;;;9.10;;
3549;SDS011;45572;48.804;8.330;2022-08-19T10:46:04;11.20;;;8.50;;
3549;SDS011;45572;48.804;8.330;2022-08-19T10:48:41;10.40;;;6.67;;
3549;SDS011;45572;48.804;8.330;2022-08-19T10:51:10;7.77;;;7.00;;
3549;SDS011;45572;48.804;8.330;2022-08-19T10:53:53;6.33;;;5.37;;
3549;SDS011;45572;48.804;8.330;2022-08-19T10:56:22;11.47;;;6.10;;
3549;SDS011;45572;48.804;8.330;2022-08-19T10:59:04;6.23;;;5.43;;
3549;SDS011;45572;48.804;8.330;2022-08-19T11:01:33;5.00;;;4.50;;
3549;SDS011;45572;48.804;8.330;2022-08-19T11:04:03;6.17;;;4.50;;
3549;SDS011;45572;48.804;8.330;2022-08-19T11:06:35;5.47;;;4.47;;
3549;SDS011;45572;48.804;8.330;2022-08-19T11:09:04;5.63;;;4.83;;
3549;SDS011;45572;48.804;8.330;2022-08-19T11:11:32;5.47;;;4.57;;
3549;SDS011;45572;48.804;8.330;2022-08-19T11:14:07;4.40;;;4.00;;
3549;SDS011;45572;48.804;8.330;2022-08-19T11:16:35;4.20;;;3.90;;
3549;SDS011;45572;48.804;8.330;2022-08-19T11:19:07;6.60;;;4.73;;
3549;SDS011;45572;48.804;8.330;2022-08-19T11:21:36;5.23;;;4.60;;
3549;SDS011;45572;48.804;8.330;2022-08-19T11:24:07;4.80;;;4.23;;
3549;SDS011;45572;48.804;8.330;2022-08-19T11:26:37;6.30;;;5.30;;
3549;SDS011;45572;48.804;8.330;2022-08-19T11:29:07;6.20;;;5.60;;
3549;SDS011;45572;48.804;8.330;2022-08-19T11:31:39;5.17;;;4.77;;
3549;SDS011;45572;48.804;8.330;2022-08-19T11:34:10;7.03;;;5.50;;
3549;SDS011;45572;48.804;8.330;2022-08-19T11:36:40;5.97;;;5.33;;
3549;SDS011;45572;48.804;8.330;2022-08-19T11:39:11;7.73;;;5.70;;
3549;SDS011;45572;48.804;8.330;2022-08-19T11:41:40;7.03;;;6.33;;
3549;SDS011;45572;48.804;8.330;2022-08-19T11:44:08;9.00;;;6.30;;
3549;SDS011;45572;48.804;8.330;2022-08-19T11:46:37;11.80;;;7.27;;
3549;SDS011;45572;48.804;8.330;2022-08-19T11:49:05;8.73;;;6.23;;
3549;SDS011;45572;48.804;8.330;2022-08-19T11:51:40;10.97;;;6.90;;
3549;SDS011;45572;48.804;8.330;2022-08-19T11:54:10;7.00;;;6.30;;
3549;SDS011;45572;48.804;8.330;2022-08-19T11:56:39;6.93;;;6.30;;
3549;SDS011;45572;48.804;8.330;2022-08-19T11:59:07;7.40;;;6.77;;
3549;SDS011;45572;48.804;8.330;2022-08-19T12:01:40;10.90;;;6.23;;
3549;SDS011;45572;48.804;8.330;2022-08-19T12:04:09;6.97;;;6.27;;
3549;SDS011;45572;48.804;8.330;2022-08-19T12:06:38;8.43;;;6.50;;
3549;SDS011;45572;48.804;8.330;2022-08-19T12:09:09;8.63;;;6.90;;
3549;SDS011;45572;48.804;8.330;2022-08-19T12:11:37;8.40;;;7.30;;
3549;SDS011;45572;48.804;8.330;2022-08-19T12:14:06;9.87;;;8.87;;
3549;SDS011;45572;48.804;8.330;2022-08-19T12:16:40;11.00;;;8.03;;
3549;SDS011;45572;48.804;8.330;2022-08-19T12:19:17;10.17;;;8.43;;
3549;SDS011;45572;48.804;8.330;2022-08-19T12:21:47;11.83;;;8.60;;
3549;SDS011;45572;48.804;8.330;2022-08-19T12:24:17;12.60;;;7.90;;
3549;SDS011;45572;48.804;8.330;2022-08-19T12:26:49;8.70;;;7.80;;
3549;SDS011;45572;48.804;8.330;2022-08-19T12:29:19;8.50;;;7.47;;
3549;SDS011;45572;48.804;8.330;2022-08-19T12:31:49;8.20;;;7.37;;
3549;SDS011;45572;48.804;8.330;2022-08-19T12:34:17;10.90;;;8.57;;
3549;SDS011;45572;48.804;8.330;2022-08-19T12:36:46;9.90;;;8.40;;
3549;SDS011;45572;48.804;8.330;2022-08-19T12:39:15;9.00;;;8.10;;
3549;SDS011;45572;48.804;8.330;2022-08-19T12:41:44;10.13;;;9.10;;
3549;SDS011;45572;48.804;8.330;2022-08-19T12:44:20;9.43;;;8.47;;
3549;SDS011;45572;48.804;8.330;2022-08-19T12:46:57;10.30;;;9.20;;
3549;SDS011;45572;48.804;8.330;2022-08-19T12:49:26;11.37;;;8.33;;
3549;SDS011;45572;48.804;8.330;2022-08-19T12:52:15;9.97;;;8.10;;
3549;SDS011;45572;48.804;8.330;2022-08-19T12:54:49;9.83;;;8.57;;
3549;SDS011;45572;48.804;8.330;2022-08-19T12:57:21;8.57;;;7.77;;
3549;SDS011;45572;48.804;8.330;2022-08-19T12:59:59;11.67;;;8.80;;
3549;SDS011;45572;48.804;8.330;2022-08-19T13:02:30;10.50;;;8.30;;
3549;SDS011;45572;48.804;8.330;2022-08-19T13:05:06;10.37;;;8.80;;
3549;SDS011;45572;48.804;8.330;2022-08-19T13:07:36;8.50;;;7.63;;
3549;SDS011;45572;48.804;8.330;2022-08-19T13:10:05;10.80;;;8.47;;
3549;SDS011;45572;48.804;8.330;2022-08-19T13:12:38;10.37;;;8.23;;
3549;SDS011;45572;48.804;8.330;2022-08-19T13:15:09;11.03;;;8.53;;
3549;SDS011;45572;48.804;8.330;2022-08-19T13:17:40;12.13;;;8.53;;
3549;SDS011;45572;48.804;8.330;2022-08-19T13:20:09;11.20;;;8.50;;
3549;SDS011;45572;48.804;8.330;2022-08-19T13:22:50;10.33;;;7.80;;
3549;SDS011;45572;48.804;8.330;2022-08-19T13:25:19;14.97;;;7.73;;
3549;SDS011;45572;48.804;8.330;2022-08-19T13:27:53;11.57;;;8.07;;
3549;SDS011;45572;48.804;8.330;2022-08-19T13:30:21;8.23;;;7.30;;
3549;SDS011;45572;48.804;8.330;2022-08-19T13:33:03;7.10;;;6.30;;
3549;SDS011;45572;48.804;8.330;2022-08-19T13:35:42;7.33;;;6.60;;
3549;SDS011;45572;48.804;8.330;2022-08-19T13:38:13;8.33;;;6.33;;
3549;SDS011;45572;48.804;8.330;2022-08-19T13:40:42;7.27;;;6.10;;
3549;SDS011;45572;48.804;8.330;2022-08-19T13:43:11;8.53;;;5.73;;
3549;SDS011;45572;48.804;8.330;2022-08-19T13:45:49;6.87;;;5.00;;
3549;SDS011;45572;48.804;8.330;2022-08-19T13:48:19;7.23;;;5.80;;
3549;SDS011;45572;48.804;8.330;2022-08-19T13:50:47;6.40;;;5.80;;
3549;SDS011;45572;48.804;8.330;2022-08-19T13:53:16;6.03;;;5.30;;
3549;SDS011;45572;48.804;8.330;2022-08-19T13:55:44;8.07;;;5.30;;
3549;SDS011;45572;48.804;8.330;2022-08-19T13:58:13;6.30;;;5.27;;
3549;SDS011;45572;48.804;8.330;2022-08-19T14:00:42;5.43;;;4.70;;
3549;SDS011;45572;48.804;8.330;2022-08-19T14:03:11;5.60;;;5.10;;
3549;SDS011;45572;48.804;8.330;2022-08-19T14:05:39;6.90;;;4.60;;
3549;SDS011;45572;48.804;8.330;2022-08-19T14:08:07;6.07;;;4.30;;
3549;SDS011;45572;48.804;8.330;2022-08-19T14:10:35;8.20;;;4.83;;
3549;SDS011;45572;48.804;8.330;2022-08-19T14:13:03;5.63;;;5.13;;
3549;SDS011;45572;48.804;8.330;2022-08-19T14:15:33;6.10;;;4.87;;
3549;SDS011;45572;48.804;8.330;2022-08-19T14:18:00;5.23;;;4.67;;
3549;SDS011;45572;48.804;8.330;2022-08-19T14:20:28;4.90;;;4.27;;
3549;SDS011;45572;48.804;8.330;2022-08-19T14:22:56;5.00;;;4.50;;
3549;SDS011;45572;48.804;8.330;2022-08-19T14:25:26;6.30;;;5.10;;
3549;SDS011;45572;48.804;8.330;2022-08-19T14:27:55;5.70;;;5.10;;
3549;SDS011;45572;48.804;8.330;2022-08-19T14:30:24;6.70;;;6.00;;
3549;SDS011;45572;48.804;8.330;2022-08-19T14:32:56;4.60;;;4.20;;
3549;SDS011;45572;48.804;8.330;2022-08-19T14:35:25;6.13;;;5.10;;
3549;SDS011;45572;48.804;8.330;2022-08-19T14:37:54;5.30;;;4.90;;
3549;SDS011;45572;48.804;8.330;2022-08-19T14:40:26;5.63;;;5.10;;
3549;SDS011;45572;48.804;8.330;2022-08-19T14:42:56;4.77;;;4.03;;
3549;SDS011;45572;48.804;8.330;2022-08-19T14:45:30;9.53;;;4.10;;
3549;SDS011;45572;48.804;8.330;2022-08-19T14:48:00;5.23;;;4.67;;
3549;SDS011;45572;48.804;8.330;2022-08-19T14:50:28;6.17;;;4.70;;
3549;SDS011;45572;48.804;8.330;2022-08-19T14:52:57;5.53;;;5.03;;
3549;SDS011;45572;48.804;8.330;2022-08-19T14:55:33;5.70;;;4.97;;
3549;SDS011;45572;48.804;8.330;2022-08-19T14:58:01;4.70;;;4.20;;
3549;SDS011;45572;48.804;8.330;2022-08-19T15:00:33;6.27;;;4.90;;
3549;SDS011;45572;48.804;8.330;2022-08-19T15:03:03;5.37;;;4.87;;
3549;SDS011;45572;48.804;8.330;2022-08-19T15:05:31;7.03;;;5.30;;
3549;SDS011;45572;48.804;8.330;2022-08-19T15:08:02;8.07;;;4.40;;
3549;SDS011;45572;48.804;8.330;2022-08-19T15:10:30;5.47;;;4.60;;